createdAt,value
2018-08-04T00:00:58.144Z,69.1
2018-08-04T00:02:58.193Z,68.43
2018-08-04T00:03:58.220Z,68.52
2018-08-04T00:04:57.988Z,68.91
2018-08-04T00:05:58.271Z,69.97
2018-08-04T00:06:58.296Z,69.68
2018-08-04T00:07:58.335Z,70.54
2018-08-04T00:09:58.378Z,70.84
2018-08-04T00:10:58.401Z,70.45
2018-08-04T00:12:58.461Z,71.22
2018-08-04T00:13:58.526Z,71.77
2018-08-04T00:14:58.246Z,71.22
2018-08-04T00:15:58.535Z,71.22
2018-08-04T00:17:13.218Z,71.32
2018-08-04T00:17:58.581Z,71.9
2018-08-04T00:18:58.606Z,71.61
2018-08-04T00:19:58.631Z,71.7
2018-08-04T00:20:58.670Z,71.67
2018-08-04T00:22:58.714Z,71.48
2018-08-04T00:23:58.740Z,71.9
2018-08-04T00:24:58.759Z,71.86
2018-08-04T00:25:58.786Z,70.8
2018-08-04T00:26:58.813Z,71
2018-08-04T00:28:58.919Z,71.38
2018-08-04T00:29:58.889Z,71.96
2018-08-04T00:30:58.915Z,71.96
2018-08-04T00:31:58.941Z,72.54
2018-08-04T00:33:13.627Z,72.34
2018-08-04T00:33:58.734Z,71.77
2018-08-04T00:34:59.015Z,71.67
2018-08-04T00:35:59.041Z,71.38
2018-08-04T00:36:59.072Z,71.96
2018-08-04T00:38:59.120Z,72.73
2018-08-04T00:39:59.245Z,72.44
2018-08-04T00:40:58.913Z,72.63
2018-08-04T00:41:59.196Z,72.25
2018-08-04T00:42:59.221Z,71.67
2018-08-04T00:43:59.277Z,72.83
2018-08-04T00:44:59.270Z,72.54
2018-08-04T00:45:59.296Z,72.34
2018-08-04T00:46:59.067Z,72.73
2018-08-04T00:47:59.351Z,73.5
2018-08-04T00:49:14.041Z,73.5
2018-08-04T00:49:59.442Z,73.79
2018-08-04T00:50:59.427Z,74.08
2018-08-04T00:51:59.453Z,73.75
2018-08-04T00:52:59.474Z,73.47
2018-08-04T00:53:59.502Z,73.47
2018-08-04T00:54:59.527Z,73.47
2018-08-04T00:55:59.557Z,73.37
2018-08-04T00:57:59.607Z,73.66
2018-08-04T00:58:59.631Z,72.99
2018-08-04T01:01:59.707Z,73.27
2018-08-04T01:02:59.731Z,74.24
2018-08-04T01:03:59.757Z,74.24
2018-08-04T01:05:14.449Z,74.52
2018-08-04T01:05:59.552Z,74.52
2018-08-04T01:06:59.834Z,74.82
2018-08-04T01:07:59.860Z,75.1
2018-08-04T01:08:59.884Z,74.52
2018-08-04T01:09:59.911Z,74.33
2018-08-04T01:10:59.940Z,74.91
2018-08-04T01:11:59.962Z,74.52
2018-08-04T01:12:59.988Z,74.82
2018-08-04T01:14:00.052Z,74.62
2018-08-04T01:16:00.064Z,74.2
2018-08-04T01:17:00.093Z,75.2
2018-08-04T01:18:00.119Z,75.36
2018-08-04T01:19:00.141Z,75.74
2018-08-04T01:20:14.828Z,74.97
2018-08-04T01:21:00.193Z,74.97
2018-08-04T01:22:00.214Z,74.78
2018-08-04T01:23:00.241Z,74.68
2018-08-04T01:24:00.013Z,74.88
2018-08-04T01:25:00.041Z,76.03
2018-08-04T01:26:00.325Z,76.03
2018-08-04T01:27:00.347Z,75.16
2018-08-04T01:28:00.370Z,74.97
2018-08-04T01:29:00.394Z,75.55
2018-08-04T01:30:00.262Z,75.16
2018-08-04T01:31:00.444Z,74.78
2018-08-04T01:32:00.474Z,75.16
2018-08-04T01:33:00.519Z,74.97
2018-08-04T01:34:00.666Z,75.55
2018-08-04T01:35:00.547Z,74.2
2018-08-04T01:36:00.571Z,75.16
2018-08-04T01:37:00.601Z,75.07
2018-08-04T01:38:00.623Z,75.74
2018-08-04T01:39:00.649Z,76.42
2018-08-04T01:40:00.677Z,75.36
2018-08-04T01:41:00.701Z,74.88
2018-08-04T01:42:00.722Z,75.55
2018-08-04T01:43:00.492Z,75.45
2018-08-04T01:44:00.774Z,75.84
2018-08-04T01:45:00.798Z,75.45
2018-08-04T01:46:00.832Z,75.45
2018-08-04T01:47:00.595Z,75.74
2018-08-04T01:49:00.901Z,75.65
2018-08-04T01:50:00.927Z,76.03
2018-08-04T01:51:00.951Z,76.9
2018-08-04T01:52:15.638Z,77.28
2018-08-04T01:53:01.015Z,77.48
2018-08-04T01:54:01.030Z,77.86
2018-08-04T01:55:00.796Z,78.15
2018-08-04T01:56:01.077Z,77.96
2018-08-04T01:57:01.102Z,78.21
2018-08-04T01:58:01.134Z,78.11
2018-08-04T01:59:01.165Z,78.11
2018-08-04T02:00:01.179Z,78.31
2018-08-04T02:01:01.207Z,78.69
2018-08-04T02:02:01.230Z,79.36
2018-08-04T02:03:01.256Z,78.88
2018-08-04T02:04:01.285Z,79.17
2018-08-04T02:05:01.305Z,78.59
2018-08-04T02:06:01.330Z,78.79
2018-08-04T02:07:01.098Z,79.17
2018-08-04T02:08:16.044Z,79.36
2018-08-04T02:09:01.407Z,79.46
2018-08-04T02:10:01.437Z,79.46
2018-08-04T02:11:01.497Z,79.27
2018-08-04T02:12:01.485Z,79.17
2018-08-04T02:13:01.513Z,79.46
2018-08-04T02:14:01.530Z,78.69
2018-08-04T02:15:01.560Z,78.88
2018-08-04T02:16:01.589Z,78.88
2018-08-04T02:17:01.621Z,78.88
2018-08-04T02:18:01.632Z,80.23
2018-08-04T02:19:01.661Z,79.56
2018-08-04T02:20:01.683Z,79.46
2018-08-04T02:21:01.709Z,78.79
2018-08-04T02:22:01.736Z,79.17
2018-08-04T02:23:01.767Z,79.66
2018-08-04T02:24:16.444Z,79.46
2018-08-04T02:25:01.810Z,79.33
2018-08-04T02:26:01.832Z,79.36
2018-08-04T02:27:01.860Z,79.46
2018-08-04T02:28:01.885Z,79.36
2018-08-04T02:30:01.689Z,80.33
2018-08-04T02:32:02.003Z,80.43
2018-08-04T02:33:02.063Z,80.29
2018-08-04T02:35:02.062Z,80.48
2018-08-04T02:36:02.096Z,80.48
2018-08-04T02:37:02.116Z,80.77
2018-08-04T02:38:02.151Z,80.96
2018-08-04T02:39:02.161Z,80.77
2018-08-04T02:40:16.848Z,80.48
2018-08-04T02:41:02.209Z,80.77
2018-08-04T02:42:02.236Z,80.38
2018-08-04T02:43:02.264Z,80.77
2018-08-04T02:44:02.290Z,79.9
2018-08-04T02:45:02.324Z,79.9
2018-08-04T02:46:02.337Z,80.29
2018-08-04T02:47:02.363Z,80.77
2018-08-04T02:48:02.389Z,80.68
2018-08-04T02:49:02.413Z,81.63
2018-08-04T02:50:02.187Z,81.45
2018-08-04T02:51:02.463Z,81.54
2018-08-04T02:52:02.229Z,81.63
2018-08-04T02:53:02.254Z,81.63
2018-08-04T02:54:02.551Z,81.73
2018-08-04T02:55:17.224Z,81.6
2018-08-04T02:56:02.589Z,81.63
2018-08-04T02:57:02.615Z,81.93
2018-08-04T02:58:02.638Z,81.93
2018-08-04T02:59:02.662Z,81.93
2018-08-04T03:00:02.431Z,81.54
2018-08-04T03:02:02.741Z,81.63
2018-08-04T03:03:02.761Z,81.35
2018-08-04T03:04:02.811Z,80.48
2018-08-04T03:05:02.821Z,81.35
2018-08-04T03:06:02.839Z,81.54
2018-08-04T03:07:02.868Z,81.83
2018-08-04T03:08:02.897Z,82.02
2018-08-04T03:09:02.912Z,82.27
2018-08-04T03:10:02.942Z,82.75
2018-08-04T03:11:02.705Z,82.75
2018-08-04T03:12:02.990Z,83.14
2018-08-04T03:13:03.013Z,82.94
2018-08-04T03:14:03.038Z,83.42
2018-08-04T03:15:03.064Z,83.04
2018-08-04T03:16:03.097Z,82.94
2018-08-04T03:17:02.854Z,83.81
2018-08-04T03:18:02.880Z,84.48
2018-08-04T03:19:03.167Z,84.1
2018-08-04T03:20:03.208Z,84.19
2018-08-04T03:21:03.213Z,83.81
2018-08-04T03:22:03.245Z,83.81
2018-08-04T03:24:03.296Z,83.81
2018-08-04T03:25:03.054Z,83.81
2018-08-04T03:26:03.336Z,83.33
2018-08-04T03:27:18.026Z,83.52
2018-08-04T03:28:03.390Z,83.62
2018-08-04T03:29:03.414Z,83.04
2018-08-04T03:30:03.438Z,82.85
2018-08-04T03:31:03.484Z,82.65
2018-08-04T03:32:03.496Z,82.75
2018-08-04T03:33:03.512Z,83.23
2018-08-04T03:34:03.539Z,83.52
2018-08-04T03:35:03.303Z,83.23
2018-08-04T03:36:03.592Z,83.42
2018-08-04T03:37:03.610Z,83.04
2018-08-04T03:38:03.646Z,83.18
2018-08-04T03:39:03.402Z,83.81
2018-08-04T03:40:03.428Z,84.39
2018-08-04T03:41:03.709Z,84.39
2018-08-04T03:42:03.735Z,84
2018-08-04T03:43:18.421Z,84.19
2018-08-04T03:44:03.784Z,83.62
2018-08-04T03:45:03.551Z,84.05
2018-08-04T03:46:03.836Z,83.75
2018-08-04T03:47:03.860Z,83.91
2018-08-04T03:48:03.932Z,84.19
2018-08-04T03:49:03.910Z,83.72
2018-08-04T03:50:03.676Z,83.85
2018-08-04T03:51:03.962Z,84.14
2018-08-04T03:52:03.995Z,84.33
2018-08-04T03:53:03.749Z,84.58
2018-08-04T03:54:04.034Z,84.58
2018-08-04T03:55:04.063Z,84.29
2018-08-04T03:56:03.826Z,84.29
2018-08-04T03:57:04.112Z,84.19
2018-08-04T03:58:03.876Z,84.39
2018-08-04T03:59:18.820Z,84.58
2018-08-04T04:00:04.188Z,84.39
2018-08-04T04:01:03.954Z,84.1
2018-08-04T04:02:04.233Z,84.29
2018-08-04T04:03:03.999Z,83.91
2018-08-04T04:04:04.025Z,84.19
2018-08-04T04:05:04.309Z,83.62
2018-08-04T04:06:04.075Z,83.62
2018-08-04T04:07:04.361Z,83.47
2018-08-04T04:08:04.125Z,83.28
2018-08-04T04:09:04.149Z,83.08
2018-08-04T04:11:04.457Z,83.28
2018-08-04T04:12:04.481Z,83.28
2018-08-04T04:13:04.250Z,83.75
2018-08-04T04:14:04.273Z,83.56
2018-08-04T04:15:19.220Z,83.37
2018-08-04T04:16:04.324Z,83.18
2018-08-04T04:17:04.352Z,82.89
2018-08-04T04:18:04.373Z,82.7
2018-08-04T04:19:04.661Z,83.37
2018-08-04T04:20:04.423Z,83.08
2018-08-04T04:21:04.447Z,82.5
2018-08-04T04:22:04.474Z,82.31
2018-08-04T04:23:04.498Z,82.79
2018-08-04T04:24:04.779Z,82.26
2018-08-04T04:25:04.547Z,81.96
2018-08-04T04:26:04.831Z,82.06
2018-08-04T04:27:04.858Z,82.35
2018-08-04T04:28:04.636Z,81.2
2018-08-04T04:29:04.652Z,80.71
2018-08-04T04:30:19.597Z,80.81
2018-08-04T04:31:04.957Z,81.39
2018-08-04T04:32:04.982Z,82.06
2018-08-04T04:33:04.749Z,81.68
2018-08-04T04:34:04.776Z,81.81
2018-08-04T04:35:04.800Z,81.77
2018-08-04T04:36:05.082Z,81.33
2018-08-04T04:37:05.119Z,81.33
2018-08-04T04:38:04.875Z,81.62
2018-08-04T04:39:05.156Z,80.76
2018-08-04T04:41:05.207Z,80.08
2018-08-04T04:42:05.233Z,79.11
2018-08-04T04:43:05.254Z,79.11
2018-08-04T04:44:05.024Z,79.6
2018-08-04T04:45:05.306Z,79.5
2018-08-04T04:46:05.333Z,80.27
2018-08-04T04:47:05.359Z,78.77
2018-08-04T04:48:05.387Z,79.16
2018-08-04T04:49:05.409Z,79.16
2018-08-04T04:50:05.174Z,78.77
2018-08-04T04:51:05.462Z,78.48
2018-08-04T04:53:05.609Z,77.84
2018-08-04T04:54:05.276Z,77.84
2018-08-04T04:55:05.562Z,78.33
2018-08-04T04:56:05.585Z,77.65
2018-08-04T04:57:05.612Z,77.65
2018-08-04T04:59:05.662Z,76.53
2018-08-04T05:00:05.429Z,75.09
2018-08-04T05:01:05.709Z,72.36
2018-08-04T05:02:20.399Z,69.08
2018-08-04T05:03:05.762Z,67.6
2018-08-04T05:04:05.790Z,65.43
2018-08-04T05:05:05.817Z,62.95
2018-08-04T05:06:05.946Z,61.55
2018-08-04T05:07:05.869Z,60.02
2018-08-04T05:08:05.903Z,58.04
2018-08-04T05:09:05.924Z,55.93
2018-08-04T05:10:05.952Z,54.79
2018-08-04T05:11:05.980Z,53.77
2018-08-04T05:13:05.779Z,52.36
2018-08-04T05:14:06.070Z,51.39
2018-08-04T05:15:05.845Z,49.95
2018-08-04T05:16:06.126Z,47.95
2018-08-04T05:17:06.154Z,47.58
2018-08-04T05:18:20.849Z,47.53
2018-08-04T05:19:06.217Z,47.14
2018-08-04T05:20:06.249Z,45.59
2018-08-04T05:21:06.275Z,45.91
2018-08-04T05:22:06.308Z,45.98
2018-08-04T05:23:06.342Z,45.89
2018-08-04T05:24:06.113Z,45.4
2018-08-04T05:25:06.405Z,43.95
2018-08-04T05:26:06.435Z,43.51
2018-08-04T05:27:06.469Z,43.21
2018-08-04T05:28:06.498Z,41.88
2018-08-04T05:29:06.533Z,41.68
2018-08-04T05:30:06.567Z,41.98
2018-08-04T05:31:06.595Z,40.43
2018-08-04T05:32:06.834Z,41.63
2018-08-04T05:33:06.664Z,40.23
2018-08-04T05:34:21.360Z,40.06
2018-08-04T05:35:06.732Z,40.82
2018-08-04T05:36:06.505Z,40.72
2018-08-04T05:37:06.796Z,40.13
2018-08-04T05:38:06.833Z,39.84
2018-08-04T05:39:06.863Z,39.95
2018-08-04T05:40:06.900Z,40.55
2018-08-04T05:41:06.931Z,40.64
2018-08-04T05:42:06.709Z,39.74
2018-08-04T05:43:06.998Z,40.55
2018-08-04T05:44:07.036Z,39.56
2018-08-04T05:46:07.101Z,39.5
2018-08-04T05:47:07.140Z,39.5
2018-08-04T05:48:06.917Z,38.48
2018-08-04T05:49:07.213Z,39.4
2018-08-04T05:50:21.905Z,37.74
2018-08-04T05:51:07.278Z,38.8
2018-08-04T05:52:07.052Z,38.52
2018-08-04T05:53:07.089Z,37.46
2018-08-04T05:54:07.382Z,37.77
2018-08-04T05:55:07.415Z,37.26
2018-08-04T05:56:07.450Z,36.69
2018-08-04T05:57:07.482Z,36.69
2018-08-04T05:58:07.621Z,37.16
2018-08-04T05:59:07.297Z,37.54
2018-08-04T06:00:07.628Z,37.54
2018-08-04T06:01:07.624Z,36.87
2018-08-04T06:02:07.661Z,36.67
2018-08-04T06:03:07.439Z,36.59
2018-08-04T06:04:07.732Z,36.02
2018-08-04T06:05:22.435Z,35.9
2018-08-04T06:06:07.801Z,35.92
2018-08-04T06:07:07.580Z,36.11
2018-08-04T06:08:07.872Z,36.61
2018-08-04T06:09:07.908Z,37.55
2018-08-04T06:10:07.949Z,36.67
2018-08-04T06:11:07.977Z,36.87
2018-08-04T06:12:08.121Z,36.69
2018-08-04T06:13:08.051Z,36
2018-08-04T06:14:07.829Z,36.59
2018-08-04T06:15:08.121Z,35.44
2018-08-04T06:16:08.160Z,34.58
2018-08-04T06:17:08.201Z,34.58
2018-08-04T06:18:08.228Z,34.69
2018-08-04T06:19:08.271Z,34.08
2018-08-04T06:20:08.305Z,34.58
2018-08-04T06:21:08.082Z,34.01
2018-08-04T06:22:08.497Z,33.62
2018-08-04T06:23:08.414Z,32.56
2018-08-04T06:24:08.449Z,32.09
2018-08-04T06:25:08.505Z,31.02
2018-08-04T06:26:08.263Z,30.92
2018-08-04T06:27:08.560Z,31.04
2018-08-04T06:28:08.616Z,30.57
2018-08-04T06:29:08.688Z,29.88
2018-08-04T06:30:08.412Z,29.97
2018-08-04T06:32:08.490Z,29.9
2018-08-04T06:33:08.780Z,29.61
2018-08-04T06:34:08.817Z,29.51
2018-08-04T06:35:08.859Z,29.51
2018-08-04T06:36:08.892Z,29.61
2018-08-04T06:37:23.614Z,28.93
2018-08-04T06:38:08.969Z,29.03
2018-08-04T06:39:08.749Z,28.73
2018-08-04T06:40:09.044Z,27.86
2018-08-04T06:41:09.084Z,28.76
2018-08-04T06:42:08.863Z,28.83
2018-08-04T06:43:08.902Z,29.32
2018-08-04T06:44:09.202Z,29.13
2018-08-04T06:45:09.238Z,29.13
2018-08-04T06:47:09.312Z,28.15
2018-08-04T06:48:09.356Z,29.25
2018-08-04T06:49:09.390Z,28.63
2018-08-04T06:50:09.435Z,28.15
2018-08-04T06:51:09.468Z,27.56
2018-08-04T06:52:09.507Z,28.25
2018-08-04T06:53:24.209Z,28.06
2018-08-04T06:54:09.324Z,27.09
2018-08-04T06:55:09.361Z,27.87
2018-08-04T06:56:09.399Z,27.58
2018-08-04T06:57:09.700Z,27.19
2018-08-04T06:58:09.736Z,26.9
2018-08-04T06:59:09.774Z,26.72
2018-08-04T07:00:09.816Z,27.01
2018-08-04T07:01:09.852Z,26.72
2018-08-04T07:02:09.889Z,26.63
2018-08-04T07:03:09.934Z,26.53
2018-08-04T07:04:09.972Z,26.03
2018-08-04T07:05:10.010Z,25.95
2018-08-04T07:06:10.050Z,25.56
2018-08-04T07:07:10.088Z,26.06
2018-08-04T07:08:10.128Z,25.76
2018-08-04T07:09:24.831Z,25.05
2018-08-04T07:10:10.208Z,24.47
2018-08-04T07:11:10.247Z,24.75
2018-08-04T07:12:10.284Z,25.24
2018-08-04T07:13:10.066Z,25.63
2018-08-04T07:14:10.365Z,25.44
2018-08-04T07:15:10.404Z,24.84
2018-08-04T07:16:10.445Z,24.65
2018-08-04T07:18:10.523Z,24.28
2018-08-04T07:19:10.568Z,24.17
2018-08-04T07:21:10.647Z,24.18
2018-08-04T07:22:10.683Z,24.08
2018-08-04T07:23:10.723Z,24.38
2018-08-04T07:24:10.763Z,24.18
2018-08-04T07:25:25.468Z,24.27
2018-08-04T07:26:10.862Z,24.28
2018-08-04T07:27:10.882Z,24.38
2018-08-04T07:28:10.922Z,23.58
2018-08-04T07:29:11.021Z,24.19
2018-08-04T07:30:10.746Z,24.19
2018-08-04T07:31:11.042Z,24.1
2018-08-04T07:33:11.125Z,23.9
2018-08-04T07:34:11.171Z,23.8
2018-08-04T07:36:11.243Z,24.19
2018-08-04T07:37:11.283Z,24.19
2018-08-04T07:38:11.068Z,24.38
2018-08-04T07:39:11.366Z,24.76
2018-08-04T07:40:26.112Z,24.75
2018-08-04T07:41:11.186Z,24.37
2018-08-04T07:42:11.483Z,24.55
2018-08-04T07:43:11.525Z,24.35
2018-08-04T07:44:11.567Z,24.35
2018-08-04T07:45:11.606Z,24.35
2018-08-04T07:46:11.386Z,24.75
2018-08-04T07:47:11.688Z,24.84
2018-08-04T07:49:11.957Z,24.47
2018-08-04T07:50:11.806Z,24.59
2018-08-04T07:51:11.845Z,24.19
2018-08-04T07:52:11.886Z,24.59
2018-08-04T07:53:11.927Z,24.2
2018-08-04T07:54:11.969Z,23.71
2018-08-04T07:55:12.005Z,23.82
2018-08-04T07:56:12.047Z,24.02
2018-08-04T07:57:12.083Z,24.19
2018-08-04T07:58:12.133Z,24.19
2018-08-04T07:59:12.166Z,24.4
2018-08-04T08:00:12.212Z,23.72
2018-08-04T08:01:12.250Z,23.14
2018-08-04T08:02:12.303Z,23.65
2018-08-04T08:03:12.326Z,23.14
2018-08-04T08:04:12.367Z,23.25
2018-08-04T08:05:12.411Z,23.25
2018-08-04T08:06:12.449Z,23.15
2018-08-04T08:07:12.515Z,22.35
2018-08-04T08:08:12.528Z,23.05
2018-08-04T08:09:12.568Z,24.43
2018-08-04T08:10:12.614Z,24.79
2018-08-04T08:11:13.036Z,24.59
2018-08-04T08:12:27.355Z,23.6
2018-08-04T08:13:12.732Z,23.53
2018-08-04T08:14:12.771Z,23.72
2018-08-04T08:15:12.811Z,22.94
2018-08-04T08:16:12.848Z,23.03
2018-08-04T08:17:12.889Z,23.13
2018-08-04T08:19:12.968Z,23.05
2018-08-04T08:20:13.009Z,22.56
2018-08-04T08:21:13.048Z,22.44
2018-08-04T08:23:13.225Z,23.14
2018-08-04T08:24:13.172Z,23.74
2018-08-04T08:25:13.211Z,22.74
2018-08-04T08:26:13.248Z,23.72
2018-08-04T08:27:13.037Z,23.52
2018-08-04T08:28:27.997Z,23.61
2018-08-04T08:29:13.378Z,23.8
2018-08-04T08:30:13.412Z,23.6
2018-08-04T08:31:13.610Z,23.3
2018-08-04T08:32:13.493Z,22.64
2018-08-04T08:33:13.531Z,22.45
2018-08-04T08:34:13.313Z,22.44
2018-08-04T08:36:13.393Z,22.27
2018-08-04T08:37:13.689Z,21.58
2018-08-04T08:38:13.731Z,22.08
2018-08-04T08:39:13.770Z,23.63
2018-08-04T08:40:13.812Z,23.41
2018-08-04T08:41:13.853Z,23.5
2018-08-04T08:42:13.893Z,23.22
2018-08-04T08:43:13.932Z,23.5
2018-08-04T08:44:28.636Z,22.34
2018-08-04T08:45:14.011Z,22.45
2018-08-04T08:46:14.051Z,22.65
2018-08-04T08:47:14.205Z,21.26
2018-08-04T08:48:13.872Z,21.59
2018-08-04T08:49:14.171Z,21.86
2018-08-04T08:50:14.211Z,23.14
2018-08-04T08:51:14.249Z,22.93
2018-08-04T08:52:14.292Z,22.83
2018-08-04T08:53:14.563Z,22.65
2018-08-04T08:54:14.870Z,22.54
2018-08-04T08:55:14.410Z,22.65
2018-08-04T08:56:14.446Z,22.93
2018-08-04T08:57:14.486Z,22.23
2018-08-04T08:58:14.268Z,22.25
2018-08-04T08:59:14.564Z,22.45
2018-08-04T09:00:29.270Z,22.86
2018-08-04T09:01:14.651Z,22.54
2018-08-04T09:02:14.431Z,23.23
2018-08-04T09:03:14.724Z,22.73
2018-08-04T09:04:14.763Z,23.93
2018-08-04T09:05:14.802Z,23.6
2018-08-04T09:06:14.840Z,24.47
2018-08-04T09:07:14.882Z,24.74
2018-08-04T09:08:14.919Z,24.76
2018-08-04T09:09:14.702Z,24.77
2018-08-04T09:10:15.006Z,24.39
2018-08-04T09:11:15.037Z,24.2
2018-08-04T09:12:15.077Z,24.29
2018-08-04T09:13:15.116Z,24.37
2018-08-04T09:14:15.155Z,23.97
2018-08-04T09:15:29.859Z,24.09
2018-08-04T09:16:15.234Z,24.68
2018-08-04T09:17:15.015Z,24.37
2018-08-04T09:18:15.309Z,24.18
2018-08-04T09:19:15.347Z,23.8
2018-08-04T09:20:15.393Z,23.32
2018-08-04T09:21:15.169Z,23.41
2018-08-04T09:22:15.466Z,22.72
2018-08-04T09:23:15.503Z,22.34
2018-08-04T09:24:15.283Z,22.03
2018-08-04T09:25:15.581Z,21.86
2018-08-04T09:26:15.624Z,22.84
2018-08-04T09:27:15.658Z,23.33
2018-08-04T09:28:15.697Z,22.33
2018-08-04T09:29:15.736Z,21.44
2018-08-04T09:30:15.782Z,21.85
2018-08-04T09:31:15.818Z,21.93
2018-08-04T09:32:15.851Z,21.47
2018-08-04T09:33:15.890Z,21.55
2018-08-04T09:34:15.935Z,21.34
2018-08-04T09:35:15.967Z,20.76
2018-08-04T09:36:16.004Z,21.44
2018-08-04T09:37:16.091Z,21.82
2018-08-04T09:38:16.083Z,22.13
2018-08-04T09:39:16.287Z,21.03
2018-08-04T09:41:16.206Z,21.15
2018-08-04T09:42:16.240Z,21.47
2018-08-04T09:43:16.017Z,21.55
2018-08-04T09:44:16.312Z,21.44
2018-08-04T09:45:16.356Z,21.73
2018-08-04T09:46:16.387Z,21.72
2018-08-04T09:47:31.092Z,21.42
2018-08-04T09:48:16.208Z,21.33
2018-08-04T09:49:16.502Z,21.41
2018-08-04T09:50:16.547Z,21.33
2018-08-04T09:51:16.579Z,20.54
2018-08-04T09:52:16.619Z,21.23
2018-08-04T09:53:16.399Z,21.5
2018-08-04T09:54:16.434Z,21.2
2018-08-04T09:55:16.732Z,21.12
2018-08-04T09:56:16.772Z,20.94
2018-08-04T09:57:16.807Z,21.03
2018-08-04T09:58:16.588Z,21.41
2018-08-04T09:59:16.883Z,21.8
2018-08-04T10:00:16.666Z,22.01
2018-08-04T10:01:16.958Z,20.65
2018-08-04T10:02:17.002Z,20.87
2018-08-04T10:03:31.699Z,20.76
2018-08-04T10:04:17.076Z,20.56
2018-08-04T10:05:17.292Z,20.84
2018-08-04T10:06:16.889Z,20.65
2018-08-04T10:07:17.197Z,20.84
2018-08-04T10:08:17.224Z,20.07
2018-08-04T10:09:17.261Z,20.37
2018-08-04T10:10:17.298Z,20.76
2018-08-04T10:11:17.396Z,19.87
2018-08-04T10:12:17.375Z,20.18
2018-08-04T10:13:17.420Z,19.77
2018-08-04T10:14:17.449Z,20.18
2018-08-04T10:15:17.488Z,19.78
2018-08-04T10:16:17.266Z,19.99
2018-08-04T10:17:17.561Z,20.28
2018-08-04T10:18:17.599Z,20.86
2018-08-04T10:19:32.301Z,19.37
2018-08-04T10:20:17.822Z,19.59
2018-08-04T10:21:17.454Z,19.67
2018-08-04T10:22:17.492Z,20.45
2018-08-04T10:23:17.785Z,20.54
2018-08-04T10:24:17.831Z,20.94
2018-08-04T10:25:17.865Z,20.84
2018-08-04T10:26:17.899Z,21.03
2018-08-04T10:27:17.678Z,21.42
2018-08-04T10:28:17.978Z,22.09
2018-08-04T10:30:18.048Z,21.82
2018-08-04T10:31:18.085Z,21.03
2018-08-04T10:32:18.409Z,21.31
2018-08-04T10:33:17.903Z,21.33
2018-08-04T10:34:17.937Z,21.81
2018-08-04T10:35:32.899Z,21.89
2018-08-04T10:36:18.267Z,22.1
2018-08-04T10:37:18.307Z,22.09
2018-08-04T10:38:18.343Z,22.48
2018-08-04T10:39:18.379Z,22.47
2018-08-04T10:40:18.417Z,22.47
2018-08-04T10:41:18.452Z,22.47
2018-08-04T10:42:18.491Z,23.54
2018-08-04T10:43:18.526Z,23.63
2018-08-04T10:44:18.326Z,23.61
2018-08-04T10:45:18.345Z,24.1
2018-08-04T10:46:18.641Z,24.08
2018-08-04T10:47:18.677Z,23.7
2018-08-04T10:48:18.455Z,23.61
2018-08-04T10:49:18.748Z,23.22
2018-08-04T10:50:33.450Z,23.43
2018-08-04T10:51:18.821Z,24.2
2018-08-04T10:52:18.859Z,24.2
2018-08-04T10:53:18.892Z,24.11
2018-08-04T10:54:18.927Z,23.72
2018-08-04T10:55:18.972Z,23.23
2018-08-04T10:56:19.003Z,23.43
2018-08-04T10:57:19.040Z,23.54
2018-08-04T10:58:19.073Z,23.14
2018-08-04T10:59:19.109Z,22.66
2018-08-04T11:00:19.149Z,23.65
2018-08-04T11:01:19.184Z,25.18
2018-08-04T11:02:19.219Z,25.14
2018-08-04T11:03:19.255Z,25.16
2018-08-04T11:04:19.292Z,24.87
2018-08-04T11:05:19.330Z,24.78
2018-08-04T11:06:19.363Z,24.1
2018-08-04T11:07:19.422Z,23.72
2018-08-04T11:08:19.178Z,23.55
2018-08-04T11:09:19.475Z,23.34
2018-08-04T11:10:19.507Z,22.96
2018-08-04T11:11:19.545Z,22.48
2018-08-04T11:12:19.578Z,22.39
2018-08-04T11:13:19.622Z,21.79
2018-08-04T11:14:19.394Z,21.69
2018-08-04T11:16:19.725Z,22.48
2018-08-04T11:17:19.760Z,22.85
2018-08-04T11:18:19.798Z,23.24
2018-08-04T11:19:19.829Z,23.43
2018-08-04T11:20:19.867Z,24.12
2018-08-04T11:21:19.902Z,24.6
2018-08-04T11:22:34.604Z,24.98
2018-08-04T11:23:19.979Z,25.62
2018-08-04T11:24:20.149Z,26.4
2018-08-04T11:25:19.790Z,25.81
2018-08-04T11:26:19.828Z,25.24
2018-08-04T11:27:19.861Z,25.26
2018-08-04T11:28:20.158Z,25.46
2018-08-04T11:29:20.190Z,25.96
2018-08-04T11:30:19.967Z,26.03
2018-08-04T11:31:20.008Z,26.2
2018-08-04T11:33:20.332Z,26.1
2018-08-04T11:34:20.366Z,26.67
2018-08-04T11:35:20.402Z,26.49
2018-08-04T11:36:20.450Z,26.49
2018-08-04T11:37:20.493Z,26.9
2018-08-04T11:38:35.173Z,26.78
2018-08-04T11:39:20.545Z,26.01
2018-08-04T11:40:20.577Z,25.84
2018-08-04T11:41:20.612Z,24.76
2018-08-04T11:42:20.647Z,25.25
2018-08-04T11:43:20.681Z,26.12
2018-08-04T11:44:20.716Z,26.97
2018-08-04T11:45:20.495Z,26.86
2018-08-04T11:46:20.792Z,27.65
2018-08-04T11:47:20.853Z,27.75
2018-08-04T11:48:20.856Z,27.47
2018-08-04T11:49:20.635Z,27
2018-08-04T11:50:20.929Z,27.39
2018-08-04T11:51:20.959Z,27.28
2018-08-04T11:52:20.998Z,28.16
2018-08-04T11:53:21.030Z,28.14
2018-08-04T11:54:35.729Z,28.24
2018-08-04T11:55:21.099Z,28.06
2018-08-04T11:56:21.145Z,27.58
2018-08-04T11:57:21.174Z,27.97
2018-08-04T11:58:21.272Z,27.94
2018-08-04T11:59:21.242Z,27.93
2018-08-04T12:00:21.274Z,27.94
2018-08-04T12:01:21.052Z,27.66
2018-08-04T12:02:21.343Z,28.05
2018-08-04T12:03:21.379Z,28.14
2018-08-04T12:04:21.415Z,28.16
2018-08-04T12:05:21.503Z,27.66
2018-08-04T12:06:21.488Z,26.68
2018-08-04T12:07:21.517Z,26.8
2018-08-04T12:08:21.552Z,27.49
2018-08-04T12:09:21.586Z,28.27
2018-08-04T12:10:36.285Z,29.34
2018-08-04T12:11:21.655Z,30.2
2018-08-04T12:12:21.696Z,29.6
2018-08-04T12:13:21.732Z,29.5
2018-08-04T12:14:21.500Z,29.99
2018-08-04T12:15:21.792Z,30.07
2018-08-04T12:16:21.826Z,29.89
2018-08-04T12:17:21.863Z,29.91
2018-08-04T12:18:21.902Z,29.39
2018-08-04T12:19:21.930Z,30.29
2018-08-04T12:20:21.967Z,30.37
2018-08-04T12:21:22.001Z,31.06
2018-08-04T12:22:22.034Z,30.09
2018-08-04T12:23:22.078Z,29.79
2018-08-04T12:24:22.206Z,29.51
2018-08-04T12:25:36.850Z,29.89
2018-08-04T12:26:22.171Z,30.38
2018-08-04T12:27:21.952Z,29.38
2018-08-04T12:28:22.242Z,29.69
2018-08-04T12:29:22.275Z,29.11
2018-08-04T12:30:22.050Z,29.6
2018-08-04T12:31:22.091Z,30.07
2018-08-04T12:32:22.377Z,30.57
2018-08-04T12:33:22.411Z,30.35
2018-08-04T12:34:22.448Z,29.88
2018-08-04T12:35:22.220Z,30.35
2018-08-04T12:36:22.513Z,30.17
2018-08-04T12:37:22.565Z,30.65
2018-08-04T12:38:22.322Z,30.94
2018-08-04T12:39:22.660Z,30.75
2018-08-04T12:40:22.650Z,31.23
2018-08-04T12:41:22.425Z,30.83
2018-08-04T12:42:22.803Z,30.94
2018-08-04T12:43:22.749Z,30.17
2018-08-04T12:44:22.527Z,29.6
2018-08-04T12:45:22.827Z,29.91
2018-08-04T12:46:22.851Z,30.19
2018-08-04T12:48:22.927Z,30.66
2018-08-04T12:49:22.954Z,30.57
2018-08-04T12:50:22.986Z,30.66
2018-08-04T12:51:23.032Z,30.94
2018-08-04T12:52:23.063Z,30.57
2018-08-04T12:53:23.091Z,30.29
2018-08-04T12:54:23.139Z,29.79
2018-08-04T12:55:23.156Z,29.3
2018-08-04T12:56:23.192Z,29.39
2018-08-04T12:57:37.888Z,29.79
2018-08-04T12:58:23.257Z,29.79
2018-08-04T13:00:23.336Z,30.94
2018-08-04T13:01:23.403Z,30.55
2018-08-04T13:02:23.391Z,30.73
2018-08-04T13:03:23.427Z,30.65
2018-08-04T13:04:23.201Z,30.93
2018-08-04T13:05:23.502Z,31.52
2018-08-04T13:06:23.531Z,31.01
2018-08-04T13:07:23.558Z,31
2018-08-04T13:08:23.595Z,30.8
2018-08-04T13:09:23.628Z,30.73
2018-08-04T13:10:23.671Z,30.65
2018-08-04T13:11:23.694Z,30.35
2018-08-04T13:12:23.729Z,31.04
2018-08-04T13:13:38.426Z,30.45
2018-08-04T13:14:23.539Z,30.35
2018-08-04T13:15:23.828Z,29.97
2018-08-04T13:16:23.866Z,30.07
2018-08-04T13:17:23.642Z,30.06
2018-08-04T13:18:23.930Z,30.16
2018-08-04T13:19:23.965Z,30.17
2018-08-04T13:20:24.000Z,30.37
2018-08-04T13:21:24.030Z,30.27
2018-08-04T13:22:24.064Z,30.96
2018-08-04T13:23:24.097Z,30.37
2018-08-04T13:24:24.132Z,30.55
2018-08-04T13:25:23.909Z,30.16
2018-08-04T13:26:24.200Z,30.83
2018-08-04T13:27:24.232Z,30.9
2018-08-04T13:28:24.268Z,31.31
2018-08-04T13:29:39.015Z,32
2018-08-04T13:30:24.446Z,31.69
2018-08-04T13:31:24.110Z,32.1
2018-08-04T13:32:24.401Z,31
2018-08-04T13:33:24.436Z,31.2
2018-08-04T13:34:24.465Z,31.2